Time;durP1;ratioP1;P1;durP2;ratioP2;P2;SDS_P1;SDS_P2;PMS_P1;PMS_P2;Temp;Humidity;BMP_temperature;BMP_pressure;BME280_temperature;BME280_humidity;BME280_pressure;Samples;Min_cycle;Max_cycle;Signal;HPM_P1;HPM_P2
2023/08/09 00:01:15;;;;;;;8.80;4.57;;;12.30;99.90;;;;;;5152509;27;20134;-58
2023/08/09 00:03:41;;;;;;;7.65;4.38;;;12.30;99.90;;;;;;5136654;27;20489;-58
2023/08/09 00:06:07;;;;;;;10.90;4.25;;;12.20;99.90;;;;;;5105601;28;20673;-58
2023/08/09 00:08:33;;;;;;;9.27;4.82;;;12.20;99.90;;;;;;5037341;28;1451899;-58
2023/08/09 00:10:59;;;;;;;5.18;4.15;;;12.20;99.90;;;;;;5071554;28;20134;-58
2023/08/09 00:13:25;;;;;;;4.90;4.10;;;12.10;99.90;;;;;;5046607;28;22435;-59
2023/08/09 00:15:52;;;;;;;9.23;4.97;;;12.10;99.90;;;;;;5088479;28;20052;-58
2023/08/09 00:18:19;;;;;;;5.55;4.18;;;12.00;99.90;;;;;;5086496;28;20467;-58
2023/08/09 00:20:45;;;;;;;7.40;4.50;;;12.00;99.90;;;;;;5084717;28;20079;-58
2023/08/09 00:23:11;;;;;;;7.07;4.20;;;12.00;99.90;;;;;;5082539;28;20524;-58
2023/08/09 00:25:41;;;;;;;8.98;4.65;;;11.90;99.90;;;;;;5083582;28;20040;-59
2023/08/09 00:28:07;;;;;;;6.40;4.28;;;11.90;99.90;;;;;;5084372;28;20040;-58
2023/08/09 00:30:33;;;;;;;7.38;4.80;;;11.90;99.90;;;;;;5075924;28;20135;-58
2023/08/09 00:32:59;;;;;;;6.95;4.28;;;11.90;99.90;;;;;;5083179;28;20052;-58
2023/08/09 00:35:26;;;;;;;5.97;4.03;;;11.80;99.90;;;;;;5033712;28;20044;-58
2023/08/09 00:37:52;;;;;;;7.65;3.50;;;11.80;99.90;;;;;;5003930;28;20184;-58
2023/08/09 00:40:18;;;;;;;8.57;4.60;;;11.80;99.90;;;;;;5027134;28;20159;-58
2023/08/09 00:42:44;;;;;;;6.72;4.45;;;11.80;99.90;;;;;;5066064;28;20052;-58
2023/08/09 00:45:12;;;;;;;6.45;4.03;;;11.70;99.90;;;;;;5055497;28;20040;-58
2023/08/09 00:47:39;;;;;;;5.72;4.10;;;11.70;99.90;;;;;;5081383;28;20047;-58
2023/08/09 00:50:06;;;;;;;5.38;4.28;;;11.70;99.90;;;;;;5078603;28;20516;-58
2023/08/09 00:52:32;;;;;;;5.85;3.80;;;11.60;99.90;;;;;;5050372;28;20056;-58
2023/08/09 00:55:00;;;;;;;9.43;4.45;;;11.60;99.90;;;;;;5043385;28;20044;-58
2023/08/09 00:57:26;;;;;;;8.07;4.15;;;11.60;99.90;;;;;;5070909;28;20378;-58
2023/08/09 00:59:53;;;;;;;5.68;3.88;;;11.60;99.90;;;;;;5079080;28;20056;-58
2023/08/09 01:02:19;;;;;;;7.93;4.28;;;11.50;99.90;;;;;;5039437;28;20052;-58
2023/08/09 01:04:45;;;;;;;11.65;4.68;;;11.60;99.90;;;;;;5074576;28;20127;-58
2023/08/09 01:07:34;;;;;;;6.72;4.40;;;11.50;99.90;;;;;;5076702;28;20048;-58
2023/08/09 01:10:12;;;;;;;4.53;3.65;;;11.60;99.90;;;;;;5056473;28;20040;-58
2023/08/09 01:12:41;;;;;;;6.22;3.90;;;11.60;99.90;;;;;;5037781;28;20056;-58
2023/08/09 01:15:12;;;;;;;7.55;4.20;;;11.50;99.90;;;;;;5015163;28;20524;-58
2023/08/09 01:17:40;;;;;;;6.22;3.70;;;11.40;99.90;;;;;;5017263;28;20041;-58
2023/08/09 01:20:11;;;;;;;11.13;3.60;;;11.40;99.90;;;;;;4978493;28;20123;-58
2023/08/09 01:22:44;;;;;;;5.07;3.55;;;11.30;99.90;;;;;;4958378;28;20050;-58
2023/08/09 01:25:10;;;;;;;7.00;4.35;;;11.30;99.90;;;;;;4967545;28;20066;-58
2023/08/09 01:27:36;;;;;;;4.65;4.03;;;11.20;99.90;;;;;;5023637;28;20132;-58
2023/08/09 01:30:07;;;;;;;7.43;3.65;;;11.20;99.90;;;;;;5002329;28;20050;-58
2023/08/09 01:32:34;;;;;;;8.82;3.67;;;11.20;99.90;;;;;;5005364;28;22523;-58
2023/08/09 01:35:01;;;;;;;6.80;3.80;;;11.20;99.90;;;;;;5036079;28;20079;-58
2023/08/09 01:37:49;;;;;;;5.00;3.88;;;11.20;99.90;;;;;;5037016;28;20379;-58
2023/08/09 01:40:17;;;;;;;6.57;3.80;;;11.20;99.90;;;;;;5033767;28;20049;-58
2023/08/09 01:42:45;;;;;;;5.28;3.22;;;11.20;99.90;;;;;;5059596;28;20056;-58
2023/08/09 01:45:12;;;;;;;3.92;3.50;;;11.20;99.90;;;;;;5057853;28;20389;-58
2023/08/09 01:47:40;;;;;;;5.03;3.40;;;11.30;99.90;;;;;;5033275;28;20119;-58
2023/08/09 01:50:16;;;;;;;4.60;3.30;;;11.30;99.90;;;;;;5054218;28;20070;-58
2023/08/09 01:52:42;;;;;;;5.20;3.55;;;11.20;99.90;;;;;;5014328;28;20885;-58
2023/08/09 01:55:09;;;;;;;6.68;3.67;;;11.20;99.90;;;;;;5030618;28;21333;-58
2023/08/09 01:57:35;;;;;;;6.50;3.65;;;11.10;99.90;;;;;;5016723;28;21747;-58
2023/08/09 02:00:02;;;;;;;5.00;3.13;;;11.10;99.90;;;;;;5009482;28;22340;-58
2023/08/09 02:02:39;;;;;;;6.90;3.33;;;11.10;99.90;;;;;;5025628;28;22995;-58
2023/08/09 02:05:05;;;;;;;7.28;3.58;;;11.00;99.90;;;;;;5009973;28;23357;-58
2023/08/09 02:07:31;;;;;;;8.00;3.58;;;11.00;99.90;;;;;;4998992;28;23947;-58
2023/08/09 02:09:57;;;;;;;3.90;3.20;;;11.00;99.90;;;;;;5045247;28;24223;-58
2023/08/09 02:12:23;;;;;;;6.28;3.53;;;11.10;99.90;;;;;;5024301;28;33217;-58
2023/08/09 02:14:50;;;;;;;13.00;3.75;;;11.00;99.90;;;;;;5008050;28;34348;-58
2023/08/09 02:17:16;;;;;;;6.60;3.72;;;10.90;99.90;;;;;;4993079;28;35379;-58
2023/08/09 02:19:42;;;;;;;6.35;3.85;;;11.00;99.90;;;;;;4983910;28;36857;-58
2023/08/09 02:22:10;;;;;;;5.82;3.90;;;10.90;99.90;;;;;;5000761;28;25019;-58
2023/08/09 02:24:36;;;;;;;7.55;3.47;;;10.80;99.90;;;;;;4998805;28;37463;-58
2023/08/09 02:27:03;;;;;;;6.03;3.55;;;10.80;99.90;;;;;;5043798;28;39665;-58
2023/08/09 02:29:30;;;;;;;4.70;3.42;;;10.80;99.90;;;;;;5031733;28;25334;-58
2023/08/09 02:31:57;;;;;;;4.47;3.28;;;10.80;99.90;;;;;;5041851;28;41027;-58
2023/08/09 02:34:23;;;;;;;6.47;3.53;;;10.70;99.90;;;;;;5045501;28;41780;-58
2023/08/09 02:36:50;;;;;;;6.72;3.15;;;10.80;99.90;;;;;;5043656;28;43093;-58
2023/08/09 02:39:16;;;;;;;6.20;3.20;;;10.80;99.90;;;;;;5031070;28;20044;-58
2023/08/09 02:41:42;;;;;;;5.38;3.17;;;10.80;99.90;;;;;;5017724;28;20509;-58
2023/08/09 02:44:08;;;;;;;5.80;3.40;;;10.80;99.90;;;;;;4990347;28;22083;-58
2023/08/09 02:46:34;;;;;;;6.30;3.83;;;10.70;99.90;;;;;;5020807;28;22232;-58
2023/08/09 02:49:00;;;;;;;7.40;3.55;;;10.70;99.90;;;;;;5001595;28;23783;-58
2023/08/09 02:51:26;;;;;;;7.82;3.90;;;10.70;99.90;;;;;;5001209;28;45642;-58
2023/08/09 02:54:04;;;;;;;3.13;2.80;;;10.70;99.90;;;;;;5003436;28;47267;-58
2023/08/09 02:56:31;;;;;;;6.65;3.17;;;10.70;99.90;;;;;;5009344;28;48798;-58
2023/08/09 02:58:59;;;;;;;8.98;3.65;;;10.70;99.90;;;;;;4962633;28;51461;-58
2023/08/09 03:01:25;;;;;;;6.90;2.90;;;10.60;99.90;;;;;;4977191;28;52198;-58
2023/08/09 03:03:54;;;;;;;7.05;2.97;;;10.70;99.90;;;;;;4995776;28;50014;-58
2023/08/09 03:06:22;;;;;;;6.75;3.33;;;10.60;99.90;;;;;;5021846;28;31769;-58
2023/08/09 03:08:51;;;;;;;3.38;2.78;;;10.60;99.90;;;;;;5025222;28;24567;-58
2023/08/09 03:11:23;;;;;;;5.17;3.13;;;10.60;99.90;;;;;;5000960;28;32357;-58
2023/08/09 03:13:51;;;;;;;4.72;2.72;;;10.60;99.90;;;;;;4956803;28;24827;-58
2023/08/09 03:16:18;;;;;;;4.57;3.40;;;10.50;99.90;;;;;;4958139;28;49094;-58
2023/08/09 03:18:45;;;;;;;6.70;3.88;;;10.50;99.90;;;;;;4958589;28;56904;-58
2023/08/09 03:21:12;;;;;;;5.82;3.05;;;10.50;99.90;;;;;;4977398;28;48944;-58
2023/08/09 03:23:39;;;;;;;5.35;4.05;;;10.50;99.90;;;;;;4965726;28;24871;-58
2023/08/09 03:26:05;;;;;;;6.50;4.55;;;10.40;99.90;;;;;;4968271;28;24891;-58
2023/08/09 03:28:33;;;;;;;6.45;5.57;;;10.40;99.90;;;;;;4947564;28;48807;-58
2023/08/09 03:31:01;;;;;;;6.60;5.93;;;10.40;99.90;;;;;;4940281;28;36384;-58
2023/08/09 03:33:32;;;;;;;5.72;4.47;;;10.30;99.90;;;;;;4985699;28;36487;-58
2023/08/09 03:35:58;;;;;;;6.28;4.15;;;10.40;99.90;;;;;;4951409;28;25006;-58
2023/08/09 03:38:25;;;;;;;5.75;3.95;;;10.30;99.90;;;;;;4959944;28;24875;-58
2023/08/09 03:40:51;;;;;;;6.72;4.07;;;10.20;99.90;;;;;;4917760;28;37874;-58
2023/08/09 03:43:17;;;;;;;5.13;3.70;;;10.30;99.90;;;;;;4944481;28;38783;-58
2023/08/09 03:45:43;;;;;;;3.90;3.42;;;10.30;99.90;;;;;;4930996;28;39041;-58
2023/08/09 03:48:09;;;;;;;6.35;3.90;;;10.30;99.90;;;;;;4949160;28;25042;-58
2023/08/09 03:50:35;;;;;;;3.42;3.10;;;10.30;99.90;;;;;;4912761;28;40495;-58
2023/08/09 03:53:02;;;;;;;6.22;3.40;;;10.40;99.90;;;;;;4931782;28;24809;-58
2023/08/09 03:55:29;;;;;;;5.00;3.00;;;10.40;99.90;;;;;;4891644;28;24968;-58
2023/08/09 03:57:55;;;;;;;4.00;3.20;;;10.40;99.90;;;;;;4889795;28;48412;-58
2023/08/09 04:00:22;;;;;;;6.43;3.70;;;10.50;99.90;;;;;;4896225;28;48741;-58
2023/08/09 04:02:49;;;;;;;5.05;3.40;;;10.50;99.90;;;;;;4896320;28;25089;-58
2023/08/09 04:05:19;;;;;;;3.00;2.72;;;10.50;99.90;;;;;;4934183;28;48583;-59
2023/08/09 04:07:46;;;;;;;4.93;3.08;;;10.60;99.90;;;;;;4955742;28;42537;-58
2023/08/09 04:10:12;;;;;;;5.85;2.97;;;10.60;99.90;;;;;;4937521;28;24900;-58
2023/08/09 04:12:38;;;;;;;3.55;2.83;;;10.70;99.90;;;;;;4955991;28;42956;-58
2023/08/09 04:15:06;;;;;;;6.03;2.80;;;10.60;99.90;;;;;;4977362;28;43325;-58
2023/08/09 04:17:32;;;;;;;5.47;2.78;;;10.70;99.90;;;;;;4997847;28;24884;-58
2023/08/09 04:19:59;;;;;;;6.65;3.45;;;10.70;99.90;;;;;;5001139;28;24848;-58
2023/08/09 04:22:26;;;;;;;10.40;3.30;;;10.70;99.90;;;;;;4978179;28;24649;-58
2023/08/09 04:24:52;;;;;;;9.43;3.25;;;10.80;99.90;;;;;;4939523;28;49363;-58
2023/08/09 04:27:18;;;;;;;9.85;3.83;;;10.80;99.90;;;;;;5001165;28;45236;-58
2023/08/09 04:29:45;;;;;;;10.00;3.45;;;10.90;99.90;;;;;;5001351;28;49444;-58
2023/08/09 04:32:12;;;;;;;10.43;4.70;;;10.90;99.90;;;;;;5014755;28;49367;-59
2023/08/09 04:34:39;;;;;;;8.10;4.20;;;11.20;99.90;;;;;;5001914;28;46313;-58
2023/08/09 04:37:05;;;;;;;8.82;4.20;;;11.40;99.90;;;;;;4996942;28;46930;-58
2023/08/09 04:39:32;;;;;;;12.50;4.57;;;11.40;99.90;;;;;;5011382;28;47349;-58
2023/08/09 04:41:58;;;;;;;7.30;3.80;;;11.60;99.90;;;;;;4999636;28;48382;-58
2023/08/09 04:44:25;;;;;;;13.38;4.63;;;11.50;99.90;;;;;;5001544;28;48899;-58
2023/08/09 04:46:51;;;;;;;9.88;3.60;;;11.60;99.90;;;;;;4973202;28;48677;-58
2023/08/09 04:49:17;;;;;;;8.32;4.30;;;11.60;99.90;;;;;;4996989;28;49036;-58
2023/08/09 04:51:43;;;;;;;10.88;4.82;;;11.60;99.90;;;;;;4982001;28;74667;-58
2023/08/09 04:54:11;;;;;;;10.75;4.97;;;11.70;99.90;;;;;;4980227;28;50176;-58
2023/08/09 04:56:37;;;;;;;12.77;5.10;;;11.60;99.90;;;;;;4938577;28;75179;-58
2023/08/09 04:59:03;;;;;;;10.95;4.90;;;11.60;99.90;;;;;;4954631;28;84588;-58
2023/08/09 05:01:29;;;;;;;17.05;6.78;;;11.80;99.90;;;;;;4981657;28;49580;-58
2023/08/09 05:03:55;;;;;;;9.50;4.53;;;11.90;99.90;;;;;;4993452;28;35518;-58
2023/08/09 05:06:22;;;;;;;9.20;4.28;;;12.10;99.90;;;;;;4964013;28;38262;-58
2023/08/09 05:08:48;;;;;;;13.63;4.78;;;12.20;99.90;;;;;;4977009;28;25395;-58
2023/08/09 05:11:14;;;;;;;13.52;6.10;;;12.20;99.90;;;;;;4844306;28;48234;-58
2023/08/09 05:13:40;;;;;;;10.35;4.00;;;12.40;99.90;;;;;;4883664;28;49228;-58
2023/08/09 05:16:06;;;;;;;14.07;4.28;;;12.60;99.90;;;;;;4914552;28;36885;-58
2023/08/09 05:18:32;;;;;;;9.85;3.63;;;12.70;99.90;;;;;;4780694;28;74761;-58
2023/08/09 05:21:29;;;;;;;7.63;3.28;;;12.90;99.90;;;;;;5071846;28;20422;-56
2023/08/09 05:23:55;;;;;;;6.85;3.75;;;12.90;99.90;;;;;;5071384;28;20025;-56
2023/08/09 05:26:21;;;;;;;10.80;5.30;;;12.90;99.90;;;;;;5071208;28;20071;-56
2023/08/09 05:28:51;;;;;;;9.65;4.13;;;13.10;99.90;;;;;;5069092;28;20134;-56
2023/08/09 05:31:17;;;;;;;9.30;4.82;;;13.00;99.90;;;;;;5071574;28;20082;-57
2023/08/09 05:33:43;;;;;;;7.93;4.65;;;13.00;99.90;;;;;;5071476;28;20028;-56
2023/08/09 05:36:09;;;;;;;14.50;6.28;;;13.10;99.90;;;;;;5071369;28;20135;-56
2023/08/09 05:38:35;;;;;;;14.35;5.80;;;13.20;99.90;;;;;;5071283;28;20052;-56
2023/08/09 05:41:01;;;;;;;20.70;6.97;;;13.40;99.90;;;;;;5071453;28;20385;-56
2023/08/09 05:43:27;;;;;;;15.55;6.07;;;13.50;99.90;;;;;;5071221;28;20021;-56
2023/08/09 05:45:53;;;;;;;15.02;5.75;;;13.60;99.90;;;;;;5071232;28;20036;-56
2023/08/09 05:48:19;;;;;;;12.88;6.35;;;13.80;99.90;;;;;;5071138;28;20071;-56
2023/08/09 05:50:45;;;;;;;11.93;6.75;;;13.90;99.90;;;;;;5070869;28;20072;-56
2023/08/09 05:53:12;;;;;;;13.85;5.43;;;14.00;99.90;;;;;;5069850;28;20016;-56
2023/08/09 05:55:40;;;;;;;14.88;5.38;;;14.20;99.90;;;;;;5070622;28;20025;-56
2023/08/09 05:58:06;;;;;;;7.93;6.15;;;14.30;99.90;;;;;;5070910;28;20064;-56
2023/08/09 06:00:32;;;;;;;9.63;5.70;;;14.40;99.90;;;;;;5070651;28;20033;-56
2023/08/09 06:03:02;;;;;;;11.10;5.32;;;14.50;99.90;;;;;;5067494;28;20136;-56
2023/08/09 06:05:28;;;;;;;9.15;5.45;;;14.60;99.90;;;;;;5070705;28;20425;-56
2023/08/09 06:07:55;;;;;;;14.10;5.43;;;14.70;99.90;;;;;;5070494;28;20024;-56
2023/08/09 06:10:22;;;;;;;11.63;5.20;;;14.80;99.90;;;;;;5070506;28;20162;-56
2023/08/09 06:12:49;;;;;;;13.48;5.25;;;14.90;99.90;;;;;;5070119;28;20033;-56
2023/08/09 06:15:16;;;;;;;10.40;5.18;;;15.00;99.90;;;;;;5069741;28;20025;-56
2023/08/09 06:17:42;;;;;;;8.32;4.63;;;15.10;99.90;;;;;;5070432;28;20106;-56
2023/08/09 06:20:09;;;;;;;12.02;5.03;;;15.20;99.90;;;;;;5070274;28;20528;-56
2023/08/09 06:22:35;;;;;;;12.38;5.10;;;15.40;99.90;;;;;;5070503;28;20355;-56
2023/08/09 06:25:01;;;;;;;9.60;5.15;;;15.50;99.90;;;;;;5069535;28;20021;-56
2023/08/09 06:27:28;;;;;;;9.70;4.32;;;15.70;99.90;;;;;;5069314;28;20406;-56
2023/08/09 06:29:53;;;;;;;8.50;4.70;;;15.90;99.90;;;;;;5070090;28;20060;-57
2023/08/09 06:32:19;;;;;;;7.10;3.88;;;16.00;99.90;;;;;;5059745;28;20045;-56
2023/08/09 06:34:45;;;;;;;6.13;3.75;;;16.20;99.90;;;;;;5056319;28;20060;-57
2023/08/09 06:37:11;;;;;;;7.93;4.28;;;16.20;99.90;;;;;;5055826;28;20425;-56
2023/08/09 06:39:37;;;;;;;14.02;4.43;;;16.40;99.90;;;;;;5056642;28;20478;-56
2023/08/09 06:42:03;;;;;;;10.27;4.03;;;16.60;99.90;;;;;;5056916;28;20121;-56
2023/08/09 06:44:29;;;;;;;10.88;3.67;;;16.80;99.90;;;;;;5056073;28;20021;-56
2023/08/09 06:46:55;;;;;;;10.73;4.47;;;16.90;99.90;;;;;;5056700;28;20100;-56
2023/08/09 06:49:22;;;;;;;14.98;4.55;;;17.20;99.90;;;;;;5056530;28;20076;-56
2023/08/09 06:51:49;;;;;;;10.20;3.33;;;17.30;99.90;;;;;;5056541;28;20032;-56
2023/08/09 06:54:14;;;;;;;10.30;4.00;;;17.50;99.90;;;;;;5056277;28;20029;-57
2023/08/09 06:56:41;;;;;;;13.07;4.80;;;17.60;99.90;;;;;;5055014;28;20108;-56
2023/08/09 06:59:07;;;;;;;7.10;3.20;;;17.70;99.90;;;;;;5054453;28;20095;-56
2023/08/09 07:01:36;;;;;;;9.70;3.88;;;18.00;99.90;;;;;;5056501;28;20060;-57
2023/08/09 07:04:02;;;;;;;9.48;3.70;;;18.30;99.90;;;;;;5056809;28;20125;-57
2023/08/09 07:06:35;;;;;;;15.90;3.83;;;18.60;99.90;;;;;;5055753;28;20108;-57
2023/08/09 07:09:01;;;;;;;11.77;3.58;;;18.80;99.90;;;;;;5055998;28;20040;-58
2023/08/09 07:11:27;;;;;;;8.05;3.50;;;19.00;99.90;;;;;;5055654;28;20021;-58
2023/08/09 07:13:53;;;;;;;11.48;3.63;;;19.40;99.90;;;;;;5056508;28;20044;-58
2023/08/09 07:16:19;;;;;;;13.30;3.70;;;19.70;99.90;;;;;;5056102;28;20115;-58
2023/08/09 07:18:48;;;;;;;11.40;4.60;;;19.90;99.60;;;;;;5055993;28;20048;-58
2023/08/09 07:21:17;;;;;;;11.55;3.63;;;20.20;99.90;;;;;;5055984;28;20049;-58
2023/08/09 07:23:42;;;;;;;9.63;3.95;;;20.50;97.40;;;;;;5056024;28;20029;-58
2023/08/09 07:26:08;;;;;;;10.75;3.75;;;20.70;97.10;;;;;;5055436;28;20488;-58
2023/08/09 07:28:34;;;;;;;9.85;3.40;;;20.80;96.50;;;;;;5054862;28;20072;-59
2023/08/09 07:31:00;;;;;;;11.88;4.03;;;21.20;94.70;;;;;;5056049;28;20025;-59
2023/08/09 07:33:27;;;;;;;17.20;4.22;;;21.60;94.80;;;;;;5055724;28;20048;-59
2023/08/09 07:35:55;;;;;;;18.27;4.85;;;22.00;94.20;;;;;;5054652;28;20024;-59
2023/08/09 07:38:21;;;;;;;14.18;4.10;;;22.40;90.60;;;;;;5056034;28;20047;-59
2023/08/09 07:40:47;;;;;;;15.57;3.92;;;22.60;88.40;;;;;;5055507;28;20032;-59
2023/08/09 07:43:13;;;;;;;12.35;4.00;;;22.90;86.10;;;;;;5054645;28;20025;-59
2023/08/09 07:45:42;;;;;;;19.73;4.22;;;22.80;83.10;;;;;;5055397;28;20087;-59
2023/08/09 07:48:08;;;;;;;16.17;4.05;;;23.20;85.00;;;;;;5055465;28;20385;-59
2023/08/09 07:50:34;;;;;;;13.57;4.03;;;23.60;86.10;;;;;;5055365;28;20028;-57
2023/08/09 07:53:00;;;;;;;15.27;4.82;;;23.90;80.70;;;;;;5055419;28;20067;-57
2023/08/09 07:55:26;;;;;;;21.35;3.78;;;23.80;77.20;;;;;;5054968;28;20463;-56
2023/08/09 07:57:52;;;;;;;10.90;3.67;;;23.50;77.40;;;;;;5055102;28;20029;-57
2023/08/09 08:00:18;;;;;;;15.30;4.43;;;23.90;74.90;;;;;;5055560;28;20492;-57
2023/08/09 08:02:46;;;;;;;10.48;3.75;;;24.30;74.60;;;;;;5055701;28;20021;-57
2023/08/09 08:05:13;;;;;;;12.68;3.78;;;24.60;76.10;;;;;;5055911;28;20036;-57
2023/08/09 08:07:40;;;;;;;8.32;3.35;;;24.60;70.80;;;;;;5055974;28;20029;-57
2023/08/09 08:10:13;;;;;;;7.88;2.63;;;25.10;73.30;;;;;;5055629;28;20112;-57
2023/08/09 08:12:40;;;;;;;4.30;2.33;;;25.50;74.00;;;;;;5055646;28;20029;-57
2023/08/09 08:15:08;;;;;;;7.30;3.10;;;25.70;65.20;;;;;;5055227;28;20037;-57
2023/08/09 08:17:34;;;;;;;4.50;2.40;;;25.70;66.10;;;;;;5053786;28;20025;-57
2023/08/09 08:20:00;;;;;;;7.55;2.67;;;25.90;63.50;;;;;;5054331;28;20103;-57
2023/08/09 08:22:26;;;;;;;3.78;1.92;;;25.90;65.50;;;;;;5054795;28;20025;-57
2023/08/09 08:24:52;;;;;;;5.28;2.15;;;26.20;54.30;;;;;;5054200;28;20374;-57
2023/08/09 08:27:18;;;;;;;2.85;2.00;;;25.70;47.60;;;;;;5054637;28;20024;-57
2023/08/09 08:29:44;;;;;;;3.00;1.80;;;24.80;48.70;;;;;;5054686;28;20378;-56
2023/08/09 08:32:16;;;;;;;3.80;2.33;;;24.70;48.20;;;;;;5054687;28;20466;-57
2023/08/09 08:34:42;;;;;;;3.60;2.00;;;24.90;51.20;;;;;;5054395;28;20174;-57
2023/08/09 08:37:08;;;;;;;4.93;2.28;;;24.80;55.10;;;;;;5054258;28;20118;-56
2023/08/09 08:39:37;;;;;;;3.97;2.53;;;24.50;47.70;;;;;;5054493;28;20056;-57
2023/08/09 08:42:03;;;;;;;3.15;1.85;;;23.60;48.60;;;;;;5054212;28;20028;-56
2023/08/09 08:44:29;;;;;;;4.05;2.17;;;23.80;50.80;;;;;;5054099;28;20025;-57
2023/08/09 08:46:59;;;;;;;2.15;1.70;;;24.10;48.50;;;;;;5054863;28;20021;-57
2023/08/09 08:49:31;;;;;;;3.60;1.70;;;24.60;48.00;;;;;;5054311;28;20294;-57
2023/08/09 08:51:59;;;;;;;4.10;1.25;;;24.70;46.00;;;;;;5054316;28;20383;-57
2023/08/09 08:54:29;;;;;;;3.58;1.20;;;24.60;46.30;;;;;;5054132;28;20240;-57
2023/08/09 08:56:55;;;;;;;4.78;1.73;;;24.40;47.10;;;;;;5054015;28;20033;-56
2023/08/09 08:59:21;;;;;;;3.55;1.52;;;25.50;47.20;;;;;;5054243;28;20144;-57
2023/08/09 09:01:47;;;;;;;6.57;1.45;;;26.10;45.90;;;;;;5054249;28;20471;-56
2023/08/09 09:04:14;;;;;;;5.80;1.50;;;25.90;40.40;;;;;;5054087;28;20029;-57
2023/08/09 09:06:41;;;;;;;4.78;1.40;;;25.50;42.10;;;;;;5054222;28;20421;-56
2023/08/09 09:09:14;;;;;;;1.50;1.25;;;24.90;41.90;;;;;;5054308;28;20028;-56
2023/08/09 09:11:44;;;;;;;3.30;1.58;;;24.40;43.00;;;;;;5054061;28;20117;-56
2023/08/09 09:14:14;;;;;;;4.20;1.50;;;24.90;43.00;;;;;;5054316;28;20028;-56
2023/08/09 09:16:41;;;;;;;1.48;0.90;;;25.20;43.50;;;;;;5053003;28;20021;-57
2023/08/09 09:19:08;;;;;;;10.70;2.03;;;24.90;42.40;;;;;;5053721;28;20033;-57
2023/08/09 09:21:35;;;;;;;6.85;2.05;;;25.20;43.20;;;;;;5054145;28;20501;-56
2023/08/09 09:24:07;;;;;;;2.80;1.60;;;24.80;43.40;;;;;;5054079;28;20036;-56
2023/08/09 09:26:34;;;;;;;3.85;1.45;;;24.90;43.10;;;;;;5053709;28;20060;-56
2023/08/09 09:29:00;;;;;;;4.25;1.90;;;25.00;44.60;;;;;;5054099;28;20021;-57
2023/08/09 09:31:39;;;;;;;4.13;1.58;;;25.40;44.20;;;;;;5054056;28;20391;-56
2023/08/09 09:34:07;;;;;;;2.63;1.10;;;25.10;43.90;;;;;;5053723;28;20032;-56
2023/08/09 09:36:37;;;;;;;3.90;1.23;;;25.90;44.30;;;;;;5053990;28;20474;-56
2023/08/09 09:39:11;;;;;;;3.17;0.98;;;26.10;39.90;;;;;;5052574;28;20037;-56
2023/08/09 09:41:46;;;;;;;7.22;1.50;;;26.20;38.10;;;;;;5053699;28;20021;-56
2023/08/09 09:44:17;;;;;;;3.53;1.60;;;26.10;41.00;;;;;;5053922;28;20033;-56
2023/08/09 09:46:43;;;;;;;2.55;1.20;;;26.30;38.80;;;;;;5053778;28;20029;-56
2023/08/09 09:49:09;;;;;;;3.38;1.40;;;25.30;39.00;;;;;;5053855;28;20489;-56
2023/08/09 09:51:35;;;;;;;2.75;1.30;;;25.60;40.20;;;;;;5053659;28;20463;-56
2023/08/09 09:54:04;;;;;;;2.83;1.77;;;26.30;40.40;;;;;;5053523;28;20450;-56
2023/08/09 09:56:30;;;;;;;4.38;1.40;;;27.30;39.70;;;;;;5051346;28;20040;-56
2023/08/09 09:58:56;;;;;;;3.33;1.45;;;27.10;36.30;;;;;;5053688;28;20194;-56
2023/08/09 10:01:25;;;;;;;2.42;1.20;;;27.40;34.80;;;;;;5053678;28;20115;-56
2023/08/09 10:04:06;;;;;;;1.60;1.10;;;26.60;35.40;;;;;;5053538;28;20033;-56
2023/08/09 10:06:36;;;;;;;1.98;1.08;;;27.60;39.30;;;;;;5054657;28;20040;-56
2023/08/09 10:09:05;;;;;;;5.53;1.50;;;28.10;36.60;;;;;;5057482;28;20119;-57
2023/08/09 10:11:34;;;;;;;3.40;1.20;;;28.70;37.70;;;;;;5057204;28;20544;-56
2023/08/09 10:14:04;;;;;;;2.80;1.40;;;28.70;36.20;;;;;;5057068;28;20029;-57
2023/08/09 10:16:32;;;;;;;4.88;1.15;;;29.50;37.90;;;;;;5057074;28;20025;-57
2023/08/09 10:19:04;;;;;;;8.02;1.40;;;29.40;33.00;;;;;;5057329;28;20028;-57
2023/08/09 10:21:31;;;;;;;2.20;1.35;;;29.20;35.90;;;;;;5057131;28;20041;-56
2023/08/09 10:24:12;;;;;;;2.75;0.95;;;28.70;33.00;;;;;;5056858;28;20033;-57
2023/08/09 10:26:39;;;;;;;4.60;1.77;;;27.70;34.40;;;;;;5057295;28;20043;-56
2023/08/09 10:29:08;;;;;;;6.30;1.33;;;28.20;35.30;;;;;;5057108;28;20036;-57
2023/08/09 10:31:52;;;;;;;4.28;1.13;;;28.10;36.00;;;;;;5056658;28;20605;-56
2023/08/09 10:34:34;;;;;;;2.83;1.20;;;27.80;32.80;;;;;;5056859;28;20029;-57
2023/08/09 10:37:01;;;;;;;2.92;1.25;;;28.70;36.70;;;;;;5056859;28;20104;-57
2023/08/09 10:39:30;;;;;;;4.85;1.17;;;26.60;34.70;;;;;;5056828;28;20036;-57
2023/08/09 10:42:00;;;;;;;3.50;1.58;;;26.80;36.00;;;;;;5056775;28;20053;-56
2023/08/09 10:44:42;;;;;;;;;;;27.00;37.30;;;;;;5057097;28;20036;-56
2023/08/09 10:47:11;;;;;;;1.88;1.33;;;27.70;36.00;;;;;;5056504;28;19912;-57
2023/08/09 10:49:49;;;;;;;1.92;1.45;;;28.00;36.80;;;;;;5056399;28;20490;-57
2023/08/09 10:52:17;;;;;;;2.60;1.30;;;28.30;38.00;;;;;;5056477;28;20029;-56
2023/08/09 10:54:44;;;;;;;5.60;2.20;;;27.70;38.60;;;;;;5056486;28;20029;-57
2023/08/09 10:57:12;;;;;;;3.88;1.42;;;27.30;36.70;;;;;;5071896;28;20028;-56
2023/08/09 10:59:39;;;;;;;3.85;1.65;;;26.10;36.40;;;;;;5077028;28;20335;-57
2023/08/09 11:02:06;;;;;;;7.85;1.50;;;26.00;37.60;;;;;;5057382;28;20044;-57
2023/08/09 11:04:33;;;;;;;2.72;1.50;;;25.90;37.70;;;;;;5055837;28;20764;-57
2023/08/09 11:06:59;;;;;;;3.30;1.95;;;26.00;39.60;;;;;;5056529;28;20092;-56
2023/08/09 11:09:27;;;;;;;3.03;1.20;;;25.90;39.90;;;;;;5055963;28;20088;-56
2023/08/09 11:11:54;;;;;;;6.55;2.13;;;26.10;39.00;;;;;;5056439;28;20604;-56
2023/08/09 11:14:22;;;;;;;3.55;1.88;;;25.10;40.00;;;;;;5056830;28;20063;-56
2023/08/09 11:16:49;;;;;;;5.63;2.80;;;25.50;39.80;;;;;;5056380;28;20470;-56
2023/08/09 11:19:20;;;;;;;6.40;2.00;;;25.90;40.00;;;;;;5056506;28;20087;-57
2023/08/09 11:21:52;;;;;;;7.85;1.67;;;26.10;42.40;;;;;;5056176;28;20032;-57
2023/08/09 11:24:26;;;;;;;6.05;1.73;;;26.40;43.10;;;;;;5055894;28;20107;-57
2023/08/09 11:26:55;;;;;;;3.47;1.55;;;25.90;42.80;;;;;;5055786;28;20025;-56
2023/08/09 11:29:25;;;;;;;4.13;1.95;;;26.50;43.50;;;;;;5055742;28;20047;-56
2023/08/09 11:31:53;;;;;;;5.72;2.20;;;26.80;41.00;;;;;;5055848;28;20040;-56
2023/08/09 11:34:21;;;;;;;5.13;1.67;;;27.10;42.70;;;;;;5056249;28;20028;-56
2023/08/09 11:36:49;;;;;;;14.82;5.85;;;27.60;38.80;;;;;;5056693;28;20104;-56
2023/08/09 11:39:16;;;;;;;4.28;1.70;;;27.70;39.90;;;;;;5055833;28;20021;-56
2023/08/09 11:41:55;;;;;;;5.88;2.15;;;28.20;40.10;;;;;;5055724;28;20533;-57
2023/08/09 11:44:26;;;;;;;4.40;1.60;;;28.60;40.30;;;;;;5055673;28;20399;-56
2023/08/09 11:46:54;;;;;;;5.43;1.73;;;27.60;37.40;;;;;;5055400;28;20021;-57
2023/08/09 11:49:27;;;;;;;2.03;1.42;;;28.10;37.80;;;;;;5055346;28;20067;-56
2023/08/09 11:51:54;;;;;;;2.00;1.33;;;28.10;34.20;;;;;;5055537;28;20482;-56
2023/08/09 11:54:21;;;;;;;7.47;1.85;;;28.70;33.40;;;;;;5055353;28;20036;-56
2023/08/09 11:56:51;;;;;;;6.20;1.70;;;28.30;35.20;;;;;;5055321;28;20386;-56
2023/08/09 11:59:19;;;;;;;1.85;1.20;;;29.10;36.40;;;;;;5055419;28;20062;-56
2023/08/09 12:01:51;;;;;;;5.70;1.50;;;28.80;35.10;;;;;;5054111;28;20048;-56
2023/08/09 12:04:21;;;;;;;7.07;2.40;;;28.80;31.10;;;;;;5054866;28;20017;-57
2023/08/09 12:06:50;;;;;;;6.60;1.50;;;29.00;32.60;;;;;;5054901;28;20029;-57
2023/08/09 12:09:35;;;;;;;5.28;1.50;;;29.40;34.70;;;;;;5054757;28;20025;-57
2023/08/09 12:12:13;;;;;;;8.43;2.10;;;30.20;35.60;;;;;;5054848;28;20025;-57
2023/08/09 12:14:45;;;;;;;1.70;1.17;;;30.50;31.90;;;;;;5054957;28;20033;-57
2023/08/09 12:17:28;;;;;;;4.35;1.60;;;30.70;31.90;;;;;;5054964;28;20026;-57
2023/08/09 12:19:58;;;;;;;7.03;2.10;;;30.00;30.70;;;;;;5054662;28;20375;-57
2023/08/09 12:22:27;;;;;;;4.35;2.10;;;30.10;30.70;;;;;;5054924;28;20021;-57
2023/08/09 12:24:54;;;;;;;4.97;1.57;;;30.10;34.10;;;;;;5053719;28;20100;-57
2023/08/09 12:27:21;;;;;;;3.13;1.80;;;29.90;34.50;;;;;;5054785;28;20254;-57
2023/08/09 12:29:47;;;;;;;1.83;1.48;;;29.40;30.70;;;;;;5053839;28;20056;-57
2023/08/09 12:32:13;;;;;;;13.35;2.78;;;28.30;32.40;;;;;;5054512;28;20029;-57
2023/08/09 12:34:39;;;;;;;6.40;3.50;;;28.80;33.00;;;;;;5054783;28;20162;-57
2023/08/09 12:37:06;;;;;;;6.60;1.90;;;28.50;33.50;;;;;;5054052;28;20021;-56
2023/08/09 12:39:34;;;;;;;4.65;1.55;;;28.60;33.70;;;;;;5054480;28;20234;-57
2023/08/09 12:42:01;;;;;;;2.53;1.20;;;28.00;35.10;;;;;;5054839;28;20124;-57
2023/08/09 12:44:27;;;;;;;5.13;2.10;;;27.50;35.20;;;;;;5054430;28;20017;-57
2023/08/09 12:46:53;;;;;;;2.38;1.45;;;27.30;36.30;;;;;;5054240;28;20095;-57
2023/08/09 12:49:20;;;;;;;3.72;1.40;;;27.90;38.40;;;;;;5054059;28;20143;-57